sensor_id;sensor_type;location;lat;lon;timestamp;temperature;humidity
4215;DHT22;2121;48.062;7.850;2024-01-11T00:00:14;-6.10;99.90
4215;DHT22;2121;48.062;7.850;2024-01-11T00:02:40;-6.10;99.90
4215;DHT22;2121;48.062;7.850;2024-01-11T00:05:06;-6.30;99.90
4215;DHT22;2121;48.062;7.850;2024-01-11T00:07:32;-6.40;99.90
4215;DHT22;2121;48.062;7.850;2024-01-11T00:09:58;-6.40;99.90
4215;DHT22;2121;48.062;7.850;2024-01-11T00:12:24;-6.50;99.90
4215;DHT22;2121;48.062;7.850;2024-01-11T00:14:49;-6.60;99.90
4215;DHT22;2121;48.062;7.850;2024-01-11T00:17:15;-6.60;99.90
4215;DHT22;2121;48.062;7.850;2024-01-11T00:19:41;-6.50;99.90
4215;DHT22;2121;48.062;7.850;2024-01-11T00:22:07;-6.50;99.90
4215;DHT22;2121;48.062;7.850;2024-01-11T00:24:32;-6.60;99.90
4215;DHT22;2121;48.062;7.850;2024-01-11T00:26:58;-6.70;99.90
4215;DHT22;2121;48.062;7.850;2024-01-11T00:29:24;-6.70;99.90
4215;DHT22;2121;48.062;7.850;2024-01-11T00:31:50;-6.80;99.90
4215;DHT22;2121;48.062;7.850;2024-01-11T00:34:15;-6.80;99.90
4215;DHT22;2121;48.062;7.850;2024-01-11T00:36:41;-6.80;99.90
4215;DHT22;2121;48.062;7.850;2024-01-11T00:39:07;-6.80;99.90
4215;DHT22;2121;48.062;7.850;2024-01-11T00:41:33;-6.80;99.90
4215;DHT22;2121;48.062;7.850;2024-01-11T00:43:58;-6.80;99.90
4215;DHT22;2121;48.062;7.850;2024-01-11T00:46:24;-6.60;99.90
4215;DHT22;2121;48.062;7.850;2024-01-11T00:48:50;-6.60;99.90
4215;DHT22;2121;48.062;7.850;2024-01-11T00:51:15;-6.70;99.90
4215;DHT22;2121;48.062;7.850;2024-01-11T00:53:41;-6.70;99.90
4215;DHT22;2121;48.062;7.850;2024-01-11T00:56:18;-6.80;99.90
4215;DHT22;2121;48.062;7.850;2024-01-11T00:58:44;-6.80;99.90
4215;DHT22;2121;48.062;7.850;2024-01-11T01:01:11;-6.90;99.90
4215;DHT22;2121;48.062;7.850;2024-01-11T01:03:37;-6.90;99.90
4215;DHT22;2121;48.062;7.850;2024-01-11T01:06:04;-6.90;99.90
4215;DHT22;2121;48.062;7.850;2024-01-11T01:08:30;-7.00;99.90
4215;DHT22;2121;48.062;7.850;2024-01-11T01:10:55;-7.10;99.90
4215;DHT22;2121;48.062;7.850;2024-01-11T01:13:21;-7.10;99.90
4215;DHT22;2121;48.062;7.850;2024-01-11T01:15:47;-7.10;99.90
4215;DHT22;2121;48.062;7.850;2024-01-11T01:18:12;-7.10;99.90
4215;DHT22;2121;48.062;7.850;2024-01-11T01:20:38;-7.10;99.90
4215;DHT22;2121;48.062;7.850;2024-01-11T01:23:04;-7.10;99.90
4215;DHT22;2121;48.062;7.850;2024-01-11T01:25:30;-7.00;99.90
4215;DHT22;2121;48.062;7.850;2024-01-11T01:27:56;-6.80;99.90
4215;DHT22;2121;48.062;7.850;2024-01-11T01:30:22;-6.90;99.90
4215;DHT22;2121;48.062;7.850;2024-01-11T01:32:48;-6.90;99.90
4215;DHT22;2121;48.062;7.850;2024-01-11T01:35:14;-6.90;99.90
4215;DHT22;2121;48.062;7.850;2024-01-11T01:37:40;-7.00;99.90
4215;DHT22;2121;48.062;7.850;2024-01-11T01:40:06;-7.10;99.90
4215;DHT22;2121;48.062;7.850;2024-01-11T01:42:33;-7.20;99.90
4215;DHT22;2121;48.062;7.850;2024-01-11T01:44:59;-7.30;99.90
4215;DHT22;2121;48.062;7.850;2024-01-11T01:47:25;-7.20;99.90
4215;DHT22;2121;48.062;7.850;2024-01-11T01:49:52;-7.20;99.90
4215;DHT22;2121;48.062;7.850;2024-01-11T01:52:19;-7.20;99.90
4215;DHT22;2121;48.062;7.850;2024-01-11T01:54:46;-7.20;99.90
4215;DHT22;2121;48.062;7.850;2024-01-11T01:57:13;-7.10;99.90
4215;DHT22;2121;48.062;7.850;2024-01-11T01:59:40;-7.20;99.90
4215;DHT22;2121;48.062;7.850;2024-01-11T02:02:07;-7.40;99.90
4215;DHT22;2121;48.062;7.850;2024-01-11T02:04:33;-7.30;99.90
4215;DHT22;2121;48.062;7.850;2024-01-11T02:07:00;-7.40;99.90
4215;DHT22;2121;48.062;7.850;2024-01-11T02:09:26;-7.40;99.90
4215;DHT22;2121;48.062;7.850;2024-01-11T02:11:52;-7.40;99.90
4215;DHT22;2121;48.062;7.850;2024-01-11T02:14:19;-7.50;99.90
4215;DHT22;2121;48.062;7.850;2024-01-11T02:16:45;-7.50;99.90
4215;DHT22;2121;48.062;7.850;2024-01-11T02:19:13;-7.30;99.90
4215;DHT22;2121;48.062;7.850;2024-01-11T02:21:42;-7.40;99.90
4215;DHT22;2121;48.062;7.850;2024-01-11T02:24:09;-7.50;99.90
4215;DHT22;2121;48.062;7.850;2024-01-11T02:26:35;-7.50;99.90
4215;DHT22;2121;48.062;7.850;2024-01-11T02:29:01;-7.50;99.90
4215;DHT22;2121;48.062;7.850;2024-01-11T02:31:27;-7.60;99.90
4215;DHT22;2121;48.062;7.850;2024-01-11T02:33:54;-7.60;99.90
4215;DHT22;2121;48.062;7.850;2024-01-11T02:36:21;-7.60;99.90
4215;DHT22;2121;48.062;7.850;2024-01-11T02:38:47;-7.60;99.90
4215;DHT22;2121;48.062;7.850;2024-01-11T02:41:16;-7.60;99.90
4215;DHT22;2121;48.062;7.850;2024-01-11T02:43:48;-7.60;99.90
4215;DHT22;2121;48.062;7.850;2024-01-11T02:46:15;-7.60;99.90
4215;DHT22;2121;48.062;7.850;2024-01-11T02:48:41;-7.50;99.90
4215;DHT22;2121;48.062;7.850;2024-01-11T02:51:07;-7.60;99.90
4215;DHT22;2121;48.062;7.850;2024-01-11T02:53:33;-7.50;99.90
4215;DHT22;2121;48.062;7.850;2024-01-11T02:56:01;-7.20;99.90
4215;DHT22;2121;48.062;7.850;2024-01-11T02:58:27;-7.10;99.90
4215;DHT22;2121;48.062;7.850;2024-01-11T03:00:52;-7.10;99.90
4215;DHT22;2121;48.062;7.850;2024-01-11T03:03:18;-7.10;99.90
4215;DHT22;2121;48.062;7.850;2024-01-11T03:05:44;-7.20;99.90
4215;DHT22;2121;48.062;7.850;2024-01-11T03:08:09;-7.40;99.90
4215;DHT22;2121;48.062;7.850;2024-01-11T03:10:37;-7.50;99.90
4215;DHT22;2121;48.062;7.850;2024-01-11T03:13:07;-7.60;99.90
4215;DHT22;2121;48.062;7.850;2024-01-11T03:15:33;-7.60;99.90
4215;DHT22;2121;48.062;7.850;2024-01-11T03:17:59;-7.70;99.90
4215;DHT22;2121;48.062;7.850;2024-01-11T03:20:24;-7.80;99.90
4215;DHT22;2121;48.062;7.850;2024-01-11T03:22:51;-7.80;99.90
4215;DHT22;2121;48.062;7.850;2024-01-11T03:25:18;-7.80;99.90
4215;DHT22;2121;48.062;7.850;2024-01-11T03:27:44;-7.70;99.90
4215;DHT22;2121;48.062;7.850;2024-01-11T03:30:10;-7.50;99.90
4215;DHT22;2121;48.062;7.850;2024-01-11T03:32:36;-7.50;99.90
4215;DHT22;2121;48.062;7.850;2024-01-11T03:35:02;-7.60;99.90
4215;DHT22;2121;48.062;7.850;2024-01-11T03:37:27;-7.80;99.90
4215;DHT22;2121;48.062;7.850;2024-01-11T03:39:53;-7.90;99.90
4215;DHT22;2121;48.062;7.850;2024-01-11T03:42:19;-7.90;99.90
4215;DHT22;2121;48.062;7.850;2024-01-11T03:44:45;-8.00;99.90
4215;DHT22;2121;48.062;7.850;2024-01-11T03:47:10;-8.00;99.90
4215;DHT22;2121;48.062;7.850;2024-01-11T03:49:36;-8.00;99.90
4215;DHT22;2121;48.062;7.850;2024-01-11T03:52:02;-8.10;99.90
4215;DHT22;2121;48.062;7.850;2024-01-11T03:54:27;-8.00;99.90
4215;DHT22;2121;48.062;7.850;2024-01-11T03:56:53;-7.90;99.90
4215;DHT22;2121;48.062;7.850;2024-01-11T03:59:19;-7.90;99.90
4215;DHT22;2121;48.062;7.850;2024-01-11T04:01:44;-7.90;99.90
4215;DHT22;2121;48.062;7.850;2024-01-11T04:04:10;-7.90;99.90
4215;DHT22;2121;48.062;7.850;2024-01-11T04:06:36;-7.90;99.90
4215;DHT22;2121;48.062;7.850;2024-01-11T04:09:02;-7.90;99.90
4215;DHT22;2121;48.062;7.850;2024-01-11T04:11:28;-7.90;99.90
4215;DHT22;2121;48.062;7.850;2024-01-11T04:13:54;-7.80;99.90
4215;DHT22;2121;48.062;7.850;2024-01-11T04:16:20;-7.80;99.90
4215;DHT22;2121;48.062;7.850;2024-01-11T04:18:46;-7.90;99.90
4215;DHT22;2121;48.062;7.850;2024-01-11T04:21:26;-8.00;99.90
4215;DHT22;2121;48.062;7.850;2024-01-11T04:23:56;-7.90;99.90
4215;DHT22;2121;48.062;7.850;2024-01-11T04:26:22;-7.80;99.90
4215;DHT22;2121;48.062;7.850;2024-01-11T04:28:49;-7.80;99.90
4215;DHT22;2121;48.062;7.850;2024-01-11T04:31:15;-7.90;99.90
4215;DHT22;2121;48.062;7.850;2024-01-11T04:33:45;-7.80;99.90
4215;DHT22;2121;48.062;7.850;2024-01-11T04:36:12;-7.90;99.90
4215;DHT22;2121;48.062;7.850;2024-01-11T04:38:38;-8.00;99.90
4215;DHT22;2121;48.062;7.850;2024-01-11T04:41:08;-8.10;99.90
4215;DHT22;2121;48.062;7.850;2024-01-11T04:43:44;-8.10;99.90
4215;DHT22;2121;48.062;7.850;2024-01-11T04:46:19;-8.10;99.90
4215;DHT22;2121;48.062;7.850;2024-01-11T04:48:47;-8.00;99.90
4215;DHT22;2121;48.062;7.850;2024-01-11T04:51:14;-8.00;99.90
4215;DHT22;2121;48.062;7.850;2024-01-11T04:53:42;-8.10;99.90
4215;DHT22;2121;48.062;7.850;2024-01-11T04:56:10;-8.10;99.90
4215;DHT22;2121;48.062;7.850;2024-01-11T04:58:40;-8.00;99.90
4215;DHT22;2121;48.062;7.850;2024-01-11T05:01:07;-8.10;99.90
4215;DHT22;2121;48.062;7.850;2024-01-11T05:03:40;-8.10;99.90
4215;DHT22;2121;48.062;7.850;2024-01-11T05:06:07;-8.10;99.90
4215;DHT22;2121;48.062;7.850;2024-01-11T05:08:32;-8.10;99.90
4215;DHT22;2121;48.062;7.850;2024-01-11T05:10:58;-8.10;99.90
4215;DHT22;2121;48.062;7.850;2024-01-11T05:13:24;-8.00;99.90
4215;DHT22;2121;48.062;7.850;2024-01-11T05:15:50;-8.10;99.90
4215;DHT22;2121;48.062;7.850;2024-01-11T05:18:16;-8.10;99.90
4215;DHT22;2121;48.062;7.850;2024-01-11T05:20:41;-8.10;99.90
4215;DHT22;2121;48.062;7.850;2024-01-11T05:23:07;-8.10;99.90
4215;DHT22;2121;48.062;7.850;2024-01-11T05:25:34;-8.20;99.90
4215;DHT22;2121;48.062;7.850;2024-01-11T05:28:00;-8.20;99.90
4215;DHT22;2121;48.062;7.850;2024-01-11T05:30:26;-8.20;99.90
4215;DHT22;2121;48.062;7.850;2024-01-11T05:32:55;-8.20;99.90
4215;DHT22;2121;48.062;7.850;2024-01-11T05:35:22;-8.20;99.90
4215;DHT22;2121;48.062;7.850;2024-01-11T05:37:53;-8.20;99.90
4215;DHT22;2121;48.062;7.850;2024-01-11T05:40:20;-8.20;99.90
4215;DHT22;2121;48.062;7.850;2024-01-11T05:42:47;-8.10;99.90
4215;DHT22;2121;48.062;7.850;2024-01-11T05:45:13;-8.00;99.90
4215;DHT22;2121;48.062;7.850;2024-01-11T05:47:42;-8.00;99.90
4215;DHT22;2121;48.062;7.850;2024-01-11T05:50:09;-8.00;99.90
4215;DHT22;2121;48.062;7.850;2024-01-11T05:52:36;-8.10;99.90
4215;DHT22;2121;48.062;7.850;2024-01-11T05:55:02;-8.10;99.90
4215;DHT22;2121;48.062;7.850;2024-01-11T05:57:28;-8.20;99.90
4215;DHT22;2121;48.062;7.850;2024-01-11T05:59:54;-8.30;99.90
4215;DHT22;2121;48.062;7.850;2024-01-11T06:02:19;-8.20;99.90
4215;DHT22;2121;48.062;7.850;2024-01-11T06:04:48;-8.00;99.90
4215;DHT22;2121;48.062;7.850;2024-01-11T06:07:15;-8.00;99.90
4215;DHT22;2121;48.062;7.850;2024-01-11T06:09:41;-8.00;99.90
4215;DHT22;2121;48.062;7.850;2024-01-11T06:12:06;-8.10;99.90
4215;DHT22;2121;48.062;7.850;2024-01-11T06:14:32;-8.00;99.90
4215;DHT22;2121;48.062;7.850;2024-01-11T06:16:58;-8.20;99.90
4215;DHT22;2121;48.062;7.850;2024-01-11T06:19:24;-8.20;99.90
4215;DHT22;2121;48.062;7.850;2024-01-11T06:21:49;-8.20;99.90
4215;DHT22;2121;48.062;7.850;2024-01-11T06:24:15;-8.30;99.90
4215;DHT22;2121;48.062;7.850;2024-01-11T06:26:41;-8.20;99.90
4215;DHT22;2121;48.062;7.850;2024-01-11T06:29:06;-8.10;99.90
4215;DHT22;2121;48.062;7.850;2024-01-11T06:31:32;-8.10;99.90
4215;DHT22;2121;48.062;7.850;2024-01-11T06:33:58;-8.10;99.90
4215;DHT22;2121;48.062;7.850;2024-01-11T06:36:24;-8.10;99.90
4215;DHT22;2121;48.062;7.850;2024-01-11T06:38:49;-7.90;99.90
4215;DHT22;2121;48.062;7.850;2024-01-11T06:41:15;-7.80;99.90
4215;DHT22;2121;48.062;7.850;2024-01-11T06:43:41;-7.90;99.90
4215;DHT22;2121;48.062;7.850;2024-01-11T06:46:06;-8.00;99.90
4215;DHT22;2121;48.062;7.850;2024-01-11T06:48:34;-8.00;99.90
4215;DHT22;2121;48.062;7.850;2024-01-11T06:51:00;-8.10;99.90
4215;DHT22;2121;48.062;7.850;2024-01-11T06:53:25;-8.10;99.90
4215;DHT22;2121;48.062;7.850;2024-01-11T06:55:51;-8.10;99.90
4215;DHT22;2121;48.062;7.850;2024-01-11T06:58:20;-8.10;99.90
4215;DHT22;2121;48.062;7.850;2024-01-11T07:00:48;-8.10;99.90
4215;DHT22;2121;48.062;7.850;2024-01-11T07:03:17;-8.00;99.90
4215;DHT22;2121;48.062;7.850;2024-01-11T07:05:43;-7.70;99.90
4215;DHT22;2121;48.062;7.850;2024-01-11T07:08:09;-7.80;99.90
4215;DHT22;2121;48.062;7.850;2024-01-11T07:10:35;-7.70;99.90
4215;DHT22;2121;48.062;7.850;2024-01-11T07:13:00;-7.60;99.90
4215;DHT22;2121;48.062;7.850;2024-01-11T07:15:26;-7.60;99.90
4215;DHT22;2121;48.062;7.850;2024-01-11T07:17:53;-7.70;99.90
4215;DHT22;2121;48.062;7.850;2024-01-11T07:20:19;-7.70;99.90
4215;DHT22;2121;48.062;7.850;2024-01-11T07:22:44;-7.60;99.90
4215;DHT22;2121;48.062;7.850;2024-01-11T07:25:10;-7.70;99.90
4215;DHT22;2121;48.062;7.850;2024-01-11T07:27:36;-7.70;99.90
4215;DHT22;2121;48.062;7.850;2024-01-11T07:30:02;-7.70;99.90
4215;DHT22;2121;48.062;7.850;2024-01-11T07:32:28;-7.70;99.90
4215;DHT22;2121;48.062;7.850;2024-01-11T07:34:54;-7.80;99.90
4215;DHT22;2121;48.062;7.850;2024-01-11T07:37:20;-7.70;99.90
4215;DHT22;2121;48.062;7.850;2024-01-11T07:39:45;-7.70;99.90
4215;DHT22;2121;48.062;7.850;2024-01-11T07:42:11;-7.70;99.90
4215;DHT22;2121;48.062;7.850;2024-01-11T07:44:37;-7.70;99.90
4215;DHT22;2121;48.062;7.850;2024-01-11T07:47:03;-7.80;99.90
4215;DHT22;2121;48.062;7.850;2024-01-11T07:49:28;-7.70;99.90
4215;DHT22;2121;48.062;7.850;2024-01-11T07:51:54;-7.70;99.90
4215;DHT22;2121;48.062;7.850;2024-01-11T07:54:20;-7.60;99.90
4215;DHT22;2121;48.062;7.850;2024-01-11T07:56:45;-7.60;99.90
4215;DHT22;2121;48.062;7.850;2024-01-11T07:59:11;-7.50;99.90
4215;DHT22;2121;48.062;7.850;2024-01-11T08:01:40;-7.30;99.90
4215;DHT22;2121;48.062;7.850;2024-01-11T08:04:06;-7.20;99.90
4215;DHT22;2121;48.062;7.850;2024-01-11T08:06:32;-7.00;99.90
4215;DHT22;2121;48.062;7.850;2024-01-11T08:08:57;-6.90;99.90
4215;DHT22;2121;48.062;7.850;2024-01-11T08:11:23;-7.10;99.90
4215;DHT22;2121;48.062;7.850;2024-01-11T08:13:49;-7.10;99.90
4215;DHT22;2121;48.062;7.850;2024-01-11T08:16:16;-7.00;99.90
4215;DHT22;2121;48.062;7.850;2024-01-11T08:18:43;-7.10;99.90
4215;DHT22;2121;48.062;7.850;2024-01-11T08:21:09;-7.10;99.90
4215;DHT22;2121;48.062;7.850;2024-01-11T08:23:39;-7.00;99.90
4215;DHT22;2121;48.062;7.850;2024-01-11T08:26:10;-6.90;99.90
4215;DHT22;2121;48.062;7.850;2024-01-11T08:28:37;-6.80;99.90
4215;DHT22;2121;48.062;7.850;2024-01-11T08:31:03;-6.70;99.90
4215;DHT22;2121;48.062;7.850;2024-01-11T08:33:30;-6.60;99.90
4215;DHT22;2121;48.062;7.850;2024-01-11T08:35:57;-6.40;99.90
4215;DHT22;2121;48.062;7.850;2024-01-11T08:38:23;-6.30;99.90
4215;DHT22;2121;48.062;7.850;2024-01-11T08:40:50;-6.20;99.90
4215;DHT22;2121;48.062;7.850;2024-01-11T08:43:16;-6.10;99.90
4215;DHT22;2121;48.062;7.850;2024-01-11T08:45:42;-6.00;99.90
4215;DHT22;2121;48.062;7.850;2024-01-11T08:48:09;-5.90;99.90
4215;DHT22;2121;48.062;7.850;2024-01-11T08:50:35;-5.70;99.90
4215;DHT22;2121;48.062;7.850;2024-01-11T08:53:01;-5.60;99.90
4215;DHT22;2121;48.062;7.850;2024-01-11T08:55:26;-5.60;99.90
4215;DHT22;2121;48.062;7.850;2024-01-11T08:57:52;-5.40;99.90
4215;DHT22;2121;48.062;7.850;2024-01-11T09:00:18;-5.20;99.90
4215;DHT22;2121;48.062;7.850;2024-01-11T09:02:44;-4.90;99.90
4215;DHT22;2121;48.062;7.850;2024-01-11T09:05:11;-4.70;99.90
4215;DHT22;2121;48.062;7.850;2024-01-11T09:07:39;-4.60;99.90
4215;DHT22;2121;48.062;7.850;2024-01-11T09:10:05;-4.50;99.90
4215;DHT22;2121;48.062;7.850;2024-01-11T09:12:34;-4.40;99.90
4215;DHT22;2121;48.062;7.850;2024-01-11T09:15:00;-4.30;99.90
4215;DHT22;2121;48.062;7.850;2024-01-11T09:17:26;-4.30;99.90
4215;DHT22;2121;48.062;7.850;2024-01-11T09:19:52;-4.10;99.90
4215;DHT22;2121;48.062;7.850;2024-01-11T09:22:17;-4.20;99.90
4215;DHT22;2121;48.062;7.850;2024-01-11T09:24:43;-4.10;99.90
4215;DHT22;2121;48.062;7.850;2024-01-11T09:27:09;-4.30;99.90
4215;DHT22;2121;48.062;7.850;2024-01-11T09:29:34;-4.40;99.90
4215;DHT22;2121;48.062;7.850;2024-01-11T09:32:00;-4.50;99.90
4215;DHT22;2121;48.062;7.850;2024-01-11T09:34:26;-4.30;99.90
4215;DHT22;2121;48.062;7.850;2024-01-11T09:36:52;-4.30;99.90
4215;DHT22;2121;48.062;7.850;2024-01-11T09:39:18;-4.40;99.90
4215;DHT22;2121;48.062;7.850;2024-01-11T09:41:55;-4.40;99.90
4215;DHT22;2121;48.062;7.850;2024-01-11T09:44:33;-4.30;99.90
4215;DHT22;2121;48.062;7.850;2024-01-11T09:47:00;-4.30;99.90
4215;DHT22;2121;48.062;7.850;2024-01-11T09:49:30;-4.30;99.90
4215;DHT22;2121;48.062;7.850;2024-01-11T09:51:57;-4.20;99.90
4215;DHT22;2121;48.062;7.850;2024-01-11T09:54:23;-4.10;99.90
4215;DHT22;2121;48.062;7.850;2024-01-11T09:56:51;-3.80;99.90
4215;DHT22;2121;48.062;7.850;2024-01-11T09:59:21;-3.60;99.90
4215;DHT22;2121;48.062;7.850;2024-01-11T10:01:50;-3.70;99.90
4215;DHT22;2121;48.062;7.850;2024-01-11T10:04:16;-3.80;99.90
4215;DHT22;2121;48.062;7.850;2024-01-11T10:06:43;-3.60;99.90
4215;DHT22;2121;48.062;7.850;2024-01-11T10:09:09;-3.30;99.90
4215;DHT22;2121;48.062;7.850;2024-01-11T10:11:36;-3.00;99.90
4215;DHT22;2121;48.062;7.850;2024-01-11T10:14:03;-2.70;99.90
4215;DHT22;2121;48.062;7.850;2024-01-11T10:16:31;-2.50;99.90
4215;DHT22;2121;48.062;7.850;2024-01-11T10:18:57;-2.40;99.90
4215;DHT22;2121;48.062;7.850;2024-01-11T10:21:23;-2.20;99.90
4215;DHT22;2121;48.062;7.850;2024-01-11T10:23:50;-2.20;99.90
4215;DHT22;2121;48.062;7.850;2024-01-11T10:26:17;-2.50;99.90
4215;DHT22;2121;48.062;7.850;2024-01-11T10:28:46;-2.20;99.90
4215;DHT22;2121;48.062;7.850;2024-01-11T10:31:12;-2.20;99.90
4215;DHT22;2121;48.062;7.850;2024-01-11T10:33:41;-2.00;99.90
4215;DHT22;2121;48.062;7.850;2024-01-11T10:36:07;-1.90;99.90
4215;DHT22;2121;48.062;7.850;2024-01-11T10:38:39;-1.80;99.90
4215;DHT22;2121;48.062;7.850;2024-01-11T10:41:06;-1.60;99.90
4215;DHT22;2121;48.062;7.850;2024-01-11T10:43:32;-1.60;99.90
4215;DHT22;2121;48.062;7.850;2024-01-11T10:46:04;-1.50;99.90
4215;DHT22;2121;48.062;7.850;2024-01-11T10:48:37;-1.50;99.90
4215;DHT22;2121;48.062;7.850;2024-01-11T10:51:07;-1.70;99.90
4215;DHT22;2121;48.062;7.850;2024-01-11T10:53:43;-2.00;99.90
4215;DHT22;2121;48.062;7.850;2024-01-11T10:56:14;-1.90;99.90
4215;DHT22;2121;48.062;7.850;2024-01-11T10:58:44;-1.80;99.90
4215;DHT22;2121;48.062;7.850;2024-01-11T11:01:12;-1.50;99.90
4215;DHT22;2121;48.062;7.850;2024-01-11T11:03:39;-1.00;99.90
4215;DHT22;2121;48.062;7.850;2024-01-11T11:06:09;-0.60;99.90
4215;DHT22;2121;48.062;7.850;2024-01-11T11:08:36;-0.80;99.90
4215;DHT22;2121;48.062;7.850;2024-01-11T11:11:04;-1.40;99.90
4215;DHT22;2121;48.062;7.850;2024-01-11T11:13:34;-1.60;99.90
4215;DHT22;2121;48.062;7.850;2024-01-11T11:16:00;-1.50;99.90
4215;DHT22;2121;48.062;7.850;2024-01-11T11:18:27;-1.50;99.90
4215;DHT22;2121;48.062;7.850;2024-01-11T11:20:53;-1.30;99.90
4215;DHT22;2121;48.062;7.850;2024-01-11T11:23:19;-1.40;99.90
4215;DHT22;2121;48.062;7.850;2024-01-11T11:25:47;-1.70;99.90
4215;DHT22;2121;48.062;7.850;2024-01-11T11:28:15;-2.10;99.90
4215;DHT22;2121;48.062;7.850;2024-01-11T11:30:44;-2.20;99.90
4215;DHT22;2121;48.062;7.850;2024-01-11T11:33:20;-2.20;99.90
4215;DHT22;2121;48.062;7.850;2024-01-11T11:35:51;-2.10;99.90
4215;DHT22;2121;48.062;7.850;2024-01-11T11:38:26;-1.70;99.90
4215;DHT22;2121;48.062;7.850;2024-01-11T11:40:56;-1.60;99.90
4215;DHT22;2121;48.062;7.850;2024-01-11T11:43:23;-1.80;99.90
4215;DHT22;2121;48.062;7.850;2024-01-11T11:45:50;-1.60;99.90
4215;DHT22;2121;48.062;7.850;2024-01-11T11:51:15;-1.60;99.90
4215;DHT22;2121;48.062;7.850;2024-01-11T11:53:42;-1.50;99.90
4215;DHT22;2121;48.062;7.850;2024-01-11T11:56:09;-1.60;99.90
4215;DHT22;2121;48.062;7.850;2024-01-11T11:58:36;-1.60;99.90
4215;DHT22;2121;48.062;7.850;2024-01-11T12:01:03;-1.50;99.90
4215;DHT22;2121;48.062;7.850;2024-01-11T12:03:34;-1.20;99.90
4215;DHT22;2121;48.062;7.850;2024-01-11T12:06:08;-0.80;99.90
4215;DHT22;2121;48.062;7.850;2024-01-11T12:08:36;-0.30;99.90
4215;DHT22;2121;48.062;7.850;2024-01-11T12:11:03;0.20;99.90
4215;DHT22;2121;48.062;7.850;2024-01-11T12:13:31;0.00;99.90
4215;DHT22;2121;48.062;7.850;2024-01-11T12:15:57;-0.30;99.90
4215;DHT22;2121;48.062;7.850;2024-01-11T12:18:23;-0.60;99.90
4215;DHT22;2121;48.062;7.850;2024-01-11T12:20:51;-0.70;99.90
4215;DHT22;2121;48.062;7.850;2024-01-11T12:23:19;-0.80;99.90
4215;DHT22;2121;48.062;7.850;2024-01-11T12:25:45;-0.90;99.90
4215;DHT22;2121;48.062;7.850;2024-01-11T12:28:10;-0.90;99.90
4215;DHT22;2121;48.062;7.850;2024-01-11T12:30:36;-0.90;99.90
4215;DHT22;2121;48.062;7.850;2024-01-11T12:33:03;-1.00;99.90
4215;DHT22;2121;48.062;7.850;2024-01-11T12:35:30;-1.20;99.90
4215;DHT22;2121;48.062;7.850;2024-01-11T12:38:06;-1.20;99.90
4215;DHT22;2121;48.062;7.850;2024-01-11T12:40:36;-0.80;99.90
4215;DHT22;2121;48.062;7.850;2024-01-11T12:43:08;-0.70;99.90
4215;DHT22;2121;48.062;7.850;2024-01-11T12:45:37;-1.00;99.90
4215;DHT22;2121;48.062;7.850;2024-01-11T12:48:06;-0.90;99.90
4215;DHT22;2121;48.062;7.850;2024-01-11T12:50:33;-0.50;99.90
4215;DHT22;2121;48.062;7.850;2024-01-11T12:53:09;-0.20;99.90
4215;DHT22;2121;48.062;7.850;2024-01-11T12:55:37;0.10;99.90
4215;DHT22;2121;48.062;7.850;2024-01-11T12:58:07;0.10;99.90
4215;DHT22;2121;48.062;7.850;2024-01-11T13:00:35;0.70;99.90
4215;DHT22;2121;48.062;7.850;2024-01-11T13:03:02;1.40;99.90
4215;DHT22;2121;48.062;7.850;2024-01-11T13:05:29;1.70;99.90
4215;DHT22;2121;48.062;7.850;2024-01-11T13:08:00;2.00;99.90
4215;DHT22;2121;48.062;7.850;2024-01-11T13:10:28;1.80;99.90
4215;DHT22;2121;48.062;7.850;2024-01-11T13:12:54;1.60;99.90
4215;DHT22;2121;48.062;7.850;2024-01-11T13:15:20;1.40;99.90
4215;DHT22;2121;48.062;7.850;2024-01-11T13:17:47;1.60;99.90
4215;DHT22;2121;48.062;7.850;2024-01-11T13:20:14;1.50;99.90
4215;DHT22;2121;48.062;7.850;2024-01-11T13:22:39;1.50;99.90
4215;DHT22;2121;48.062;7.850;2024-01-11T13:25:05;1.50;99.90
4215;DHT22;2121;48.062;7.850;2024-01-11T13:27:31;1.60;99.90
4215;DHT22;2121;48.062;7.850;2024-01-11T13:29:57;1.80;99.90
4215;DHT22;2121;48.062;7.850;2024-01-11T13:32:23;1.60;99.90
4215;DHT22;2121;48.062;7.850;2024-01-11T13:34:51;1.60;99.90
4215;DHT22;2121;48.062;7.850;2024-01-11T13:37:19;1.50;99.90
4215;DHT22;2121;48.062;7.850;2024-01-11T13:39:45;1.70;99.90
4215;DHT22;2121;48.062;7.850;2024-01-11T13:42:11;1.70;99.90
4215;DHT22;2121;48.062;7.850;2024-01-11T13:44:38;1.60;99.90
4215;DHT22;2121;48.062;7.850;2024-01-11T13:47:04;1.60;99.90
4215;DHT22;2121;48.062;7.850;2024-01-11T13:49:30;1.30;99.90
4215;DHT22;2121;48.062;7.850;2024-01-11T13:51:56;0.80;99.90
4215;DHT22;2121;48.062;7.850;2024-01-11T13:54:22;1.00;99.90
4215;DHT22;2121;48.062;7.850;2024-01-11T13:56:48;1.30;99.90
4215;DHT22;2121;48.062;7.850;2024-01-11T13:59:16;1.60;99.90
4215;DHT22;2121;48.062;7.850;2024-01-11T14:01:42;1.60;99.90
4215;DHT22;2121;48.062;7.850;2024-01-11T14:04:08;1.60;99.90
4215;DHT22;2121;48.062;7.850;2024-01-11T14:06:34;1.50;99.90
4215;DHT22;2121;48.062;7.850;2024-01-11T14:09:01;1.80;99.90
4215;DHT22;2121;48.062;7.850;2024-01-11T14:11:30;1.90;99.90
4215;DHT22;2121;48.062;7.850;2024-01-11T14:13:55;1.80;99.90
4215;DHT22;2121;48.062;7.850;2024-01-11T14:16:21;1.80;99.90
4215;DHT22;2121;48.062;7.850;2024-01-11T14:18:48;1.90;99.90
4215;DHT22;2121;48.062;7.850;2024-01-11T14:21:14;1.90;99.90
4215;DHT22;2121;48.062;7.850;2024-01-11T14:23:40;2.00;99.90
4215;DHT22;2121;48.062;7.850;2024-01-11T14:26:06;2.00;99.90
4215;DHT22;2121;48.062;7.850;2024-01-11T14:28:31;2.10;99.90
4215;DHT22;2121;48.062;7.850;2024-01-11T14:30:57;2.10;99.90
4215;DHT22;2121;48.062;7.850;2024-01-11T14:33:23;2.00;99.90
4215;DHT22;2121;48.062;7.850;2024-01-11T14:35:49;1.70;99.90
4215;DHT22;2121;48.062;7.850;2024-01-11T14:38:14;1.50;99.90
4215;DHT22;2121;48.062;7.850;2024-01-11T14:40:40;1.40;99.90
4215;DHT22;2121;48.062;7.850;2024-01-11T14:43:07;1.10;99.90
4215;DHT22;2121;48.062;7.850;2024-01-11T14:45:33;1.00;99.90
4215;DHT22;2121;48.062;7.850;2024-01-11T14:48:00;1.00;99.90
4215;DHT22;2121;48.062;7.850;2024-01-11T14:50:26;1.00;99.90
4215;DHT22;2121;48.062;7.850;2024-01-11T14:52:51;1.00;99.90
4215;DHT22;2121;48.062;7.850;2024-01-11T14:55:17;1.00;99.90
4215;DHT22;2121;48.062;7.850;2024-01-11T14:57:43;0.90;99.90
4215;DHT22;2121;48.062;7.850;2024-01-11T15:00:09;0.70;99.90
4215;DHT22;2121;48.062;7.850;2024-01-11T15:02:38;0.60;99.90
4215;DHT22;2121;48.062;7.850;2024-01-11T15:05:06;0.40;99.90
4215;DHT22;2121;48.062;7.850;2024-01-11T15:07:33;0.40;99.90
4215;DHT22;2121;48.062;7.850;2024-01-11T15:09:58;0.40;99.90
4215;DHT22;2121;48.062;7.850;2024-01-11T15:12:24;0.30;99.90
4215;DHT22;2121;48.062;7.850;2024-01-11T15:14:50;0.20;99.90
4215;DHT22;2121;48.062;7.850;2024-01-11T15:17:19;0.10;99.90
4215;DHT22;2121;48.062;7.850;2024-01-11T15:19:46;-0.10;99.90
4215;DHT22;2121;48.062;7.850;2024-01-11T15:22:13;-0.20;99.90
4215;DHT22;2121;48.062;7.850;2024-01-11T15:24:40;-0.40;99.90
4215;DHT22;2121;48.062;7.850;2024-01-11T15:27:07;-0.50;99.90
4215;DHT22;2121;48.062;7.850;2024-01-11T15:29:33;-0.60;99.90
4215;DHT22;2121;48.062;7.850;2024-01-11T15:31:58;-0.60;99.90
4215;DHT22;2121;48.062;7.850;2024-01-11T15:34:24;-0.80;99.90
4215;DHT22;2121;48.062;7.850;2024-01-11T15:36:50;-0.90;99.90
4215;DHT22;2121;48.062;7.850;2024-01-11T15:39:15;-1.00;99.90
4215;DHT22;2121;48.062;7.850;2024-01-11T15:41:41;-1.10;99.90
4215;DHT22;2121;48.062;7.850;2024-01-11T15:44:07;-1.30;99.90
4215;DHT22;2121;48.062;7.850;2024-01-11T15:46:33;-1.40;99.90
4215;DHT22;2121;48.062;7.850;2024-01-11T15:48:59;-1.40;99.90
4215;DHT22;2121;48.062;7.850;2024-01-11T15:51:24;-1.50;99.90
4215;DHT22;2121;48.062;7.850;2024-01-11T15:53:50;-1.60;99.90
4215;DHT22;2121;48.062;7.850;2024-01-11T15:56:16;-1.60;99.90
4215;DHT22;2121;48.062;7.850;2024-01-11T15:58:42;-1.70;99.90
4215;DHT22;2121;48.062;7.850;2024-01-11T16:01:08;-1.90;99.90
4215;DHT22;2121;48.062;7.850;2024-01-11T16:03:34;-2.00;99.90